sensor_id;sensor_type;location;lat;lon;timestamp;temperature;humidity
3492;DHT22;1760;52.480;13.422;2023-07-24T00:01:06;21.20;99.90
3492;DHT22;1760;52.480;13.422;2023-07-24T00:03:33;21.30;99.90
3492;DHT22;1760;52.480;13.422;2023-07-24T00:05:59;21.20;99.90
3492;DHT22;1760;52.480;13.422;2023-07-24T00:10:57;21.10;99.90
3492;DHT22;1760;52.480;13.422;2023-07-24T00:13:26;21.20;99.90
3492;DHT22;1760;52.480;13.422;2023-07-24T00:15:52;21.10;99.90
3492;DHT22;1760;52.480;13.422;2023-07-24T00:18:19;21.30;99.90
3492;DHT22;1760;52.480;13.422;2023-07-24T00:20:46;21.30;99.90
3492;DHT22;1760;52.480;13.422;2023-07-24T00:23:15;21.10;99.90
3492;DHT22;1760;52.480;13.422;2023-07-24T00:25:42;21.10;99.90
3492;DHT22;1760;52.480;13.422;2023-07-24T00:28:12;21.10;99.90
3492;DHT22;1760;52.480;13.422;2023-07-24T00:30:40;21.30;99.90
3492;DHT22;1760;52.480;13.422;2023-07-24T00:33:07;21.20;99.90
3492;DHT22;1760;52.480;13.422;2023-07-24T00:35:34;21.00;99.90
3492;DHT22;1760;52.480;13.422;2023-07-24T00:38:00;21.20;99.90
3492;DHT22;1760;52.480;13.422;2023-07-24T00:40:27;21.30;99.90
3492;DHT22;1760;52.480;13.422;2023-07-24T00:47:50;21.00;99.90
3492;DHT22;1760;52.480;13.422;2023-07-24T00:52:45;21.10;99.90
3492;DHT22;1760;52.480;13.422;2023-07-24T00:55:13;21.10;99.90
3492;DHT22;1760;52.480;13.422;2023-07-24T01:00:10;21.00;99.90
3492;DHT22;1760;52.480;13.422;2023-07-24T01:02:37;21.10;99.90
3492;DHT22;1760;52.480;13.422;2023-07-24T01:05:06;21.10;99.90
3492;DHT22;1760;52.480;13.422;2023-07-24T01:07:34;21.00;99.90
3492;DHT22;1760;52.480;13.422;2023-07-24T01:12:36;20.90;99.90
3492;DHT22;1760;52.480;13.422;2023-07-24T01:15:09;20.60;99.90
3492;DHT22;1760;52.480;13.422;2023-07-24T01:17:42;20.90;99.90
3492;DHT22;1760;52.480;13.422;2023-07-24T01:20:12;20.80;99.90
3492;DHT22;1760;52.480;13.422;2023-07-24T01:22:48;20.80;99.90
3492;DHT22;1760;52.480;13.422;2023-07-24T01:25:28;20.70;99.90
3492;DHT22;1760;52.480;13.422;2023-07-24T01:27:59;20.80;99.90
3492;DHT22;1760;52.480;13.422;2023-07-24T01:30:26;20.80;99.90
3492;DHT22;1760;52.480;13.422;2023-07-24T01:32:53;20.80;99.90
3492;DHT22;1760;52.480;13.422;2023-07-24T01:35:20;20.80;99.90
3492;DHT22;1760;52.480;13.422;2023-07-24T01:37:48;20.70;99.90
3492;DHT22;1760;52.480;13.422;2023-07-24T01:42:43;20.70;99.90
3492;DHT22;1760;52.480;13.422;2023-07-24T01:45:11;20.90;99.90
3492;DHT22;1760;52.480;13.422;2023-07-24T01:47:38;20.80;99.90
3492;DHT22;1760;52.480;13.422;2023-07-24T01:50:06;20.80;99.90
3492;DHT22;1760;52.480;13.422;2023-07-24T01:52:35;20.80;99.90
3492;DHT22;1760;52.480;13.422;2023-07-24T01:55:03;20.90;99.90
3492;DHT22;1760;52.480;13.422;2023-07-24T01:57:34;20.70;99.90
3492;DHT22;1760;52.480;13.422;2023-07-24T02:00:06;20.80;99.90
3492;DHT22;1760;52.480;13.422;2023-07-24T02:02:34;20.70;99.90
3492;DHT22;1760;52.480;13.422;2023-07-24T02:05:03;20.70;99.90
3492;DHT22;1760;52.480;13.422;2023-07-24T02:09:57;20.60;99.90
3492;DHT22;1760;52.480;13.422;2023-07-24T02:12:24;20.60;99.90
3492;DHT22;1760;52.480;13.422;2023-07-24T02:14:51;21.10;99.90
3492;DHT22;1760;52.480;13.422;2023-07-24T02:17:19;20.70;99.90
3492;DHT22;1760;52.480;13.422;2023-07-24T02:19:47;20.50;99.90
3492;DHT22;1760;52.480;13.422;2023-07-24T02:22:14;20.70;99.90
3492;DHT22;1760;52.480;13.422;2023-07-24T02:27:12;20.80;99.90
3492;DHT22;1760;52.480;13.422;2023-07-24T02:29:40;20.60;99.90
3492;DHT22;1760;52.480;13.422;2023-07-24T02:32:07;20.80;99.90
3492;DHT22;1760;52.480;13.422;2023-07-24T02:34:37;20.80;99.90
3492;DHT22;1760;52.480;13.422;2023-07-24T02:37:05;20.80;99.90
3492;DHT22;1760;52.480;13.422;2023-07-24T02:39:32;20.50;99.90
3492;DHT22;1760;52.480;13.422;2023-07-24T02:41:59;20.70;99.90
3492;DHT22;1760;52.480;13.422;2023-07-24T02:44:26;20.90;99.90
3492;DHT22;1760;52.480;13.422;2023-07-24T02:46:53;20.80;99.90
3492;DHT22;1760;52.480;13.422;2023-07-24T02:49:19;20.80;99.90
3492;DHT22;1760;52.480;13.422;2023-07-24T02:54:19;20.60;99.90
3492;DHT22;1760;52.480;13.422;2023-07-24T02:56:46;20.60;99.90
3492;DHT22;1760;52.480;13.422;2023-07-24T02:59:15;20.60;99.90
3492;DHT22;1760;52.480;13.422;2023-07-24T03:01:41;21.20;99.90
3492;DHT22;1760;52.480;13.422;2023-07-24T03:04:08;20.80;99.90
3492;DHT22;1760;52.480;13.422;2023-07-24T03:06:35;20.70;99.90
3492;DHT22;1760;52.480;13.422;2023-07-24T03:09:02;20.70;99.90
3492;DHT22;1760;52.480;13.422;2023-07-24T03:11:30;20.30;99.90
3492;DHT22;1760;52.480;13.422;2023-07-24T03:21:20;20.70;99.90
3492;DHT22;1760;52.480;13.422;2023-07-24T03:28:49;20.70;99.90
3492;DHT22;1760;52.480;13.422;2023-07-24T03:31:16;20.60;99.90
3492;DHT22;1760;52.480;13.422;2023-07-24T03:33:43;21.30;99.90
3492;DHT22;1760;52.480;13.422;2023-07-24T03:38:37;20.90;99.90
3492;DHT22;1760;52.480;13.422;2023-07-24T03:41:03;20.70;99.90
3492;DHT22;1760;52.480;13.422;2023-07-24T03:45:59;20.90;99.90
3492;DHT22;1760;52.480;13.422;2023-07-24T03:48:26;21.00;99.90
3492;DHT22;1760;52.480;13.422;2023-07-24T03:50:58;20.70;99.90
3492;DHT22;1760;52.480;13.422;2023-07-24T03:53:25;20.60;99.90
3492;DHT22;1760;52.480;13.422;2023-07-24T03:58:19;20.90;99.90
3492;DHT22;1760;52.480;13.422;2023-07-24T04:00:46;20.90;99.90
3492;DHT22;1760;52.480;13.422;2023-07-24T04:03:15;20.90;99.90
3492;DHT22;1760;52.480;13.422;2023-07-24T04:08:12;20.60;99.90
3492;DHT22;1760;52.480;13.422;2023-07-24T04:10:39;20.60;99.90
3492;DHT22;1760;52.480;13.422;2023-07-24T04:13:07;20.30;99.90
3492;DHT22;1760;52.480;13.422;2023-07-24T04:15:36;20.50;99.90
3492;DHT22;1760;52.480;13.422;2023-07-24T04:20:32;20.40;99.90
3492;DHT22;1760;52.480;13.422;2023-07-24T04:22:59;20.60;99.90
3492;DHT22;1760;52.480;13.422;2023-07-24T04:25:26;20.50;99.90
3492;DHT22;1760;52.480;13.422;2023-07-24T04:27:55;21.10;99.90
3492;DHT22;1760;52.480;13.422;2023-07-24T04:32:51;20.90;99.90
3492;DHT22;1760;52.480;13.422;2023-07-24T04:35:18;21.00;99.90
3492;DHT22;1760;52.480;13.422;2023-07-24T04:37:46;20.60;99.90
3492;DHT22;1760;52.480;13.422;2023-07-24T04:42:40;20.90;99.90
3492;DHT22;1760;52.480;13.422;2023-07-24T04:45:08;20.70;99.90
3492;DHT22;1760;52.480;13.422;2023-07-24T04:47:35;20.70;99.90
3492;DHT22;1760;52.480;13.422;2023-07-24T04:50:02;20.80;99.90
3492;DHT22;1760;52.480;13.422;2023-07-24T04:52:29;20.90;99.90
3492;DHT22;1760;52.480;13.422;2023-07-24T04:54:57;21.10;99.90
3492;DHT22;1760;52.480;13.422;2023-07-24T04:57:24;20.70;99.90
3492;DHT22;1760;52.480;13.422;2023-07-24T04:59:51;20.80;99.90
3492;DHT22;1760;52.480;13.422;2023-07-24T05:02:20;21.40;99.90
3492;DHT22;1760;52.480;13.422;2023-07-24T05:04:47;21.00;99.90
3492;DHT22;1760;52.480;13.422;2023-07-24T05:07:13;21.00;99.90
3492;DHT22;1760;52.480;13.422;2023-07-24T05:09:40;21.10;99.90
3492;DHT22;1760;52.480;13.422;2023-07-24T05:12:08;21.30;99.90
3492;DHT22;1760;52.480;13.422;2023-07-24T05:14:35;21.20;99.90
3492;DHT22;1760;52.480;13.422;2023-07-24T05:17:02;21.30;99.90
3492;DHT22;1760;52.480;13.422;2023-07-24T05:19:29;21.60;99.90
3492;DHT22;1760;52.480;13.422;2023-07-24T05:21:56;21.60;99.90
3492;DHT22;1760;52.480;13.422;2023-07-24T05:24:24;21.80;99.90
3492;DHT22;1760;52.480;13.422;2023-07-24T05:26:51;21.40;99.90
3492;DHT22;1760;52.480;13.422;2023-07-24T05:29:19;21.90;99.90
3492;DHT22;1760;52.480;13.422;2023-07-24T05:31:47;21.90;99.90
3492;DHT22;1760;52.480;13.422;2023-07-24T05:36:41;22.00;99.90
3492;DHT22;1760;52.480;13.422;2023-07-24T05:39:08;22.00;99.90
3492;DHT22;1760;52.480;13.422;2023-07-24T05:41:35;21.40;99.90
3492;DHT22;1760;52.480;13.422;2023-07-24T05:44:02;22.00;99.90
3492;DHT22;1760;52.480;13.422;2023-07-24T05:46:30;21.80;99.90
3492;DHT22;1760;52.480;13.422;2023-07-24T05:51:26;22.10;99.90
3492;DHT22;1760;52.480;13.422;2023-07-24T05:53:53;21.90;99.90
3492;DHT22;1760;52.480;13.422;2023-07-24T05:56:19;21.90;99.90
3492;DHT22;1760;52.480;13.422;2023-07-24T06:03:42;21.90;99.90
3492;DHT22;1760;52.480;13.422;2023-07-24T06:08:38;22.00;99.90
3492;DHT22;1760;52.480;13.422;2023-07-24T06:11:05;22.30;99.90
3492;DHT22;1760;52.480;13.422;2023-07-24T06:13:31;22.20;99.90
3492;DHT22;1760;52.480;13.422;2023-07-24T06:15:58;22.20;99.90
3492;DHT22;1760;52.480;13.422;2023-07-24T06:18:25;21.80;99.90
3492;DHT22;1760;52.480;13.422;2023-07-24T06:20:54;22.20;99.90
3492;DHT22;1760;52.480;13.422;2023-07-24T06:23:21;22.30;99.90
3492;DHT22;1760;52.480;13.422;2023-07-24T06:28:17;22.20;99.90
3492;DHT22;1760;52.480;13.422;2023-07-24T06:30:45;22.40;99.90
3492;DHT22;1760;52.480;13.422;2023-07-24T06:35:40;22.40;99.90
3492;DHT22;1760;52.480;13.422;2023-07-24T06:38:08;21.90;99.90
3492;DHT22;1760;52.480;13.422;2023-07-24T06:43:02;22.50;99.90
3492;DHT22;1760;52.480;13.422;2023-07-24T06:45:29;22.70;99.90
3492;DHT22;1760;52.480;13.422;2023-07-24T06:47:56;22.70;99.90
3492;DHT22;1760;52.480;13.422;2023-07-24T06:50:23;22.60;99.90
3492;DHT22;1760;52.480;13.422;2023-07-24T06:52:52;22.60;99.90
3492;DHT22;1760;52.480;13.422;2023-07-24T06:55:22;22.70;99.90
3492;DHT22;1760;52.480;13.422;2023-07-24T06:57:49;22.70;99.90
3492;DHT22;1760;52.480;13.422;2023-07-24T07:00:16;22.60;99.90
3492;DHT22;1760;52.480;13.422;2023-07-24T07:02:43;23.00;99.90
3492;DHT22;1760;52.480;13.422;2023-07-24T07:05:10;22.70;99.90
3492;DHT22;1760;52.480;13.422;2023-07-24T07:07:37;23.20;99.90
3492;DHT22;1760;52.480;13.422;2023-07-24T07:10:05;23.40;99.90
3492;DHT22;1760;52.480;13.422;2023-07-24T07:12:34;23.30;99.90
3492;DHT22;1760;52.480;13.422;2023-07-24T07:15:00;23.50;99.90
3492;DHT22;1760;52.480;13.422;2023-07-24T07:19:57;23.60;99.90
3492;DHT22;1760;52.480;13.422;2023-07-24T07:22:24;24.00;99.90
3492;DHT22;1760;52.480;13.422;2023-07-24T07:24:51;24.10;99.90
3492;DHT22;1760;52.480;13.422;2023-07-24T07:27:18;26.00;99.90
3492;DHT22;1760;52.480;13.422;2023-07-24T07:29:46;27.40;99.90
3492;DHT22;1760;52.480;13.422;2023-07-24T07:32:13;28.60;99.90
3492;DHT22;1760;52.480;13.422;2023-07-24T07:34:40;29.00;99.90
3492;DHT22;1760;52.480;13.422;2023-07-24T07:37:07;29.80;99.90
3492;DHT22;1760;52.480;13.422;2023-07-24T07:39:34;29.80;98.80
3492;DHT22;1760;52.480;13.422;2023-07-24T07:42:01;30.40;96.60
3492;DHT22;1760;52.480;13.422;2023-07-24T07:46:57;31.50;86.60
3492;DHT22;1760;52.480;13.422;2023-07-24T07:49:25;31.70;99.90
3492;DHT22;1760;52.480;13.422;2023-07-24T07:51:52;31.80;99.90
3492;DHT22;1760;52.480;13.422;2023-07-24T07:54:19;31.90;85.20
3492;DHT22;1760;52.480;13.422;2023-07-24T07:56:46;31.90;99.80
3492;DHT22;1760;52.480;13.422;2023-07-24T07:59:13;32.10;80.50
3492;DHT22;1760;52.480;13.422;2023-07-24T08:01:39;32.50;78.00
3492;DHT22;1760;52.480;13.422;2023-07-24T08:04:09;32.30;96.90
3492;DHT22;1760;52.480;13.422;2023-07-24T08:06:39;32.00;76.10
3492;DHT22;1760;52.480;13.422;2023-07-24T08:09:07;31.80;94.00
3492;DHT22;1760;52.480;13.422;2023-07-24T08:11:34;31.90;77.70
3492;DHT22;1760;52.480;13.422;2023-07-24T08:14:01;30.50;99.20
3492;DHT22;1760;52.480;13.422;2023-07-24T08:16:28;30.50;99.00
3492;DHT22;1760;52.480;13.422;2023-07-24T08:18:55;30.40;99.10
3492;DHT22;1760;52.480;13.422;2023-07-24T08:21:25;30.40;80.00
3492;DHT22;1760;52.480;13.422;2023-07-24T08:23:52;30.80;99.90
3492;DHT22;1760;52.480;13.422;2023-07-24T08:26:19;31.60;96.20
3492;DHT22;1760;52.480;13.422;2023-07-24T08:28:46;31.60;98.10
3492;DHT22;1760;52.480;13.422;2023-07-24T08:31:12;31.50;77.20
3492;DHT22;1760;52.480;13.422;2023-07-24T08:33:39;31.60;93.80
3492;DHT22;1760;52.480;13.422;2023-07-24T08:36:07;31.20;82.00
3492;DHT22;1760;52.480;13.422;2023-07-24T08:38:35;30.70;98.30
3492;DHT22;1760;52.480;13.422;2023-07-24T08:41:04;30.20;99.40
3492;DHT22;1760;52.480;13.422;2023-07-24T08:46:00;28.90;83.30
3492;DHT22;1760;52.480;13.422;2023-07-24T08:48:30;28.30;83.70
3492;DHT22;1760;52.480;13.422;2023-07-24T08:50:59;27.80;90.30
3492;DHT22;1760;52.480;13.422;2023-07-24T08:53:26;27.90;99.90
3492;DHT22;1760;52.480;13.422;2023-07-24T08:55:58;28.20;91.50
3492;DHT22;1760;52.480;13.422;2023-07-24T08:58:26;28.90;99.90
3492;DHT22;1760;52.480;13.422;2023-07-24T09:03:20;29.20;99.90
3492;DHT22;1760;52.480;13.422;2023-07-24T09:05:47;29.40;87.80
3492;DHT22;1760;52.480;13.422;2023-07-24T09:08:14;29.30;99.90
3492;DHT22;1760;52.480;13.422;2023-07-24T09:13:12;30.20;98.40
3492;DHT22;1760;52.480;13.422;2023-07-24T09:15:41;30.40;97.50
3492;DHT22;1760;52.480;13.422;2023-07-24T09:20:39;30.00;99.90
3492;DHT22;1760;52.480;13.422;2023-07-24T09:23:08;30.20;85.10
3492;DHT22;1760;52.480;13.422;2023-07-24T09:25:36;31.20;99.90
3492;DHT22;1760;52.480;13.422;2023-07-24T09:28:10;31.30;99.80
3492;DHT22;1760;52.480;13.422;2023-07-24T09:33:05;31.70;98.70
3492;DHT22;1760;52.480;13.422;2023-07-24T09:35:33;31.80;98.30
3492;DHT22;1760;52.480;13.422;2023-07-24T09:38:04;32.10;96.50
3492;DHT22;1760;52.480;13.422;2023-07-24T09:40:39;33.00;93.60
3492;DHT22;1760;52.480;13.422;2023-07-24T09:43:18;32.30;96.50
3492;DHT22;1760;52.480;13.422;2023-07-24T09:45:48;31.70;73.20
3492;DHT22;1760;52.480;13.422;2023-07-24T09:48:18;31.60;74.20
3492;DHT22;1760;52.480;13.422;2023-07-24T09:50:48;31.80;74.80
3492;DHT22;1760;52.480;13.422;2023-07-24T09:53:20;32.60;94.30
3492;DHT22;1760;52.480;13.422;2023-07-24T09:55:51;33.00;93.20
3492;DHT22;1760;52.480;13.422;2023-07-24T09:58:21;33.00;91.40
3492;DHT22;1760;52.480;13.422;2023-07-24T10:00:49;33.00;94.30
3492;DHT22;1760;52.480;13.422;2023-07-24T10:03:16;32.60;91.20
3492;DHT22;1760;52.480;13.422;2023-07-24T10:05:46;33.10;67.40
3492;DHT22;1760;52.480;13.422;2023-07-24T10:08:14;33.30;93.00
3492;DHT22;1760;52.480;13.422;2023-07-24T10:10:42;34.00;90.20
3492;DHT22;1760;52.480;13.422;2023-07-24T10:13:10;33.20;93.20
3492;DHT22;1760;52.480;13.422;2023-07-24T10:15:44;33.40;63.60
3492;DHT22;1760;52.480;13.422;2023-07-24T10:20:40;33.60;89.30
3492;DHT22;1760;52.480;13.422;2023-07-24T10:23:09;33.90;62.70
3492;DHT22;1760;52.480;13.422;2023-07-24T10:25:38;34.10;61.40
3492;DHT22;1760;52.480;13.422;2023-07-24T10:28:07;34.00;92.20
3492;DHT22;1760;52.480;13.422;2023-07-24T10:30:36;33.90;91.60
3492;DHT22;1760;52.480;13.422;2023-07-24T10:33:06;33.90;92.00
3492;DHT22;1760;52.480;13.422;2023-07-24T10:35:38;33.30;84.90
3492;DHT22;1760;52.480;13.422;2023-07-24T10:40:33;32.30;61.70
3492;DHT22;1760;52.480;13.422;2023-07-24T10:43:01;32.30;91.40
3492;DHT22;1760;52.480;13.422;2023-07-24T10:45:47;32.20;66.00
3492;DHT22;1760;52.480;13.422;2023-07-24T10:48:16;32.40;74.80
3492;DHT22;1760;52.480;13.422;2023-07-24T10:50:45;31.50;93.00
3492;DHT22;1760;52.480;13.422;2023-07-24T10:53:15;31.30;64.00
3492;DHT22;1760;52.480;13.422;2023-07-24T10:55:42;31.20;93.90
3492;DHT22;1760;52.480;13.422;2023-07-24T10:58:10;31.10;63.30
3492;DHT22;1760;52.480;13.422;2023-07-24T11:00:38;31.00;89.50
3492;DHT22;1760;52.480;13.422;2023-07-24T11:03:08;30.90;63.10
3492;DHT22;1760;52.480;13.422;2023-07-24T11:05:39;30.50;90.10
3492;DHT22;1760;52.480;13.422;2023-07-24T11:08:12;30.70;94.10
3492;DHT22;1760;52.480;13.422;2023-07-24T11:10:44;30.50;77.40
3492;DHT22;1760;52.480;13.422;2023-07-24T11:13:12;30.30;94.80
3492;DHT22;1760;52.480;13.422;2023-07-24T11:20:38;30.50;94.80
3492;DHT22;1760;52.480;13.422;2023-07-24T11:23:05;30.00;95.50
3492;DHT22;1760;52.480;13.422;2023-07-24T11:25:32;30.60;95.90
3492;DHT22;1760;52.480;13.422;2023-07-24T11:28:01;30.40;96.70
3492;DHT22;1760;52.480;13.422;2023-07-24T11:30:30;30.40;96.60
3492;DHT22;1760;52.480;13.422;2023-07-24T11:32:57;30.50;92.90
3492;DHT22;1760;52.480;13.422;2023-07-24T11:35:26;29.70;91.90
3492;DHT22;1760;52.480;13.422;2023-07-24T11:37:55;29.50;97.60
3492;DHT22;1760;52.480;13.422;2023-07-24T11:40:30;28.90;97.80
3492;DHT22;1760;52.480;13.422;2023-07-24T11:42:58;29.10;97.90
3492;DHT22;1760;52.480;13.422;2023-07-24T11:45:24;29.30;97.60
3492;DHT22;1760;52.480;13.422;2023-07-24T11:47:51;29.40;97.10
3492;DHT22;1760;52.480;13.422;2023-07-24T11:50:19;29.10;69.00
3492;DHT22;1760;52.480;13.422;2023-07-24T11:52:49;29.00;95.00
3492;DHT22;1760;52.480;13.422;2023-07-24T11:55:19;28.90;98.20
3492;DHT22;1760;52.480;13.422;2023-07-24T11:57:56;28.70;94.50
3492;DHT22;1760;52.480;13.422;2023-07-24T12:00:23;28.80;95.00
3492;DHT22;1760;52.480;13.422;2023-07-24T12:02:50;28.40;95.00
3492;DHT22;1760;52.480;13.422;2023-07-24T12:05:17;28.50;94.70
3492;DHT22;1760;52.480;13.422;2023-07-24T12:07:45;28.50;70.80
3492;DHT22;1760;52.480;13.422;2023-07-24T12:10:13;28.40;70.60
3492;DHT22;1760;52.480;13.422;2023-07-24T12:12:43;28.40;71.00
3492;DHT22;1760;52.480;13.422;2023-07-24T12:15:11;28.10;99.10
3492;DHT22;1760;52.480;13.422;2023-07-24T12:17:38;27.80;94.90
3492;DHT22;1760;52.480;13.422;2023-07-24T12:20:06;27.70;97.60
3492;DHT22;1760;52.480;13.422;2023-07-24T12:22:35;27.70;98.90
3492;DHT22;1760;52.480;13.422;2023-07-24T12:25:02;27.70;98.00
3492;DHT22;1760;52.480;13.422;2023-07-24T12:27:29;27.70;99.90
3492;DHT22;1760;52.480;13.422;2023-07-24T12:29:58;27.20;99.90
3492;DHT22;1760;52.480;13.422;2023-07-24T12:34:54;26.90;99.90
3492;DHT22;1760;52.480;13.422;2023-07-24T12:37:21;27.10;99.90
3492;DHT22;1760;52.480;13.422;2023-07-24T12:39:48;26.40;99.90
3492;DHT22;1760;52.480;13.422;2023-07-24T12:42:15;25.70;99.90
3492;DHT22;1760;52.480;13.422;2023-07-24T12:44:43;25.60;99.90
3492;DHT22;1760;52.480;13.422;2023-07-24T12:47:12;25.70;99.90
3492;DHT22;1760;52.480;13.422;2023-07-24T12:52:06;25.60;99.90
3492;DHT22;1760;52.480;13.422;2023-07-24T12:54:34;25.60;99.90
3492;DHT22;1760;52.480;13.422;2023-07-24T12:57:01;25.70;99.90
3492;DHT22;1760;52.480;13.422;2023-07-24T12:59:28;25.80;99.90
3492;DHT22;1760;52.480;13.422;2023-07-24T13:01:55;25.70;99.90
3492;DHT22;1760;52.480;13.422;2023-07-24T13:04:23;25.60;99.90
3492;DHT22;1760;52.480;13.422;2023-07-24T13:09:19;25.60;99.90
3492;DHT22;1760;52.480;13.422;2023-07-24T13:14:16;25.10;99.90
3492;DHT22;1760;52.480;13.422;2023-07-24T13:19:10;25.30;99.90
3492;DHT22;1760;52.480;13.422;2023-07-24T13:21:39;24.80;99.90
3492;DHT22;1760;52.480;13.422;2023-07-24T13:24:06;24.90;99.90
3492;DHT22;1760;52.480;13.422;2023-07-24T13:26:33;25.00;99.90
3492;DHT22;1760;52.480;13.422;2023-07-24T13:29:00;25.10;99.90
3492;DHT22;1760;52.480;13.422;2023-07-24T13:33:55;25.40;99.90
3492;DHT22;1760;52.480;13.422;2023-07-24T13:36:21;25.50;99.90
3492;DHT22;1760;52.480;13.422;2023-07-24T13:38:50;25.40;99.90
3492;DHT22;1760;52.480;13.422;2023-07-24T13:43:44;25.90;99.90
3492;DHT22;1760;52.480;13.422;2023-07-24T13:46:11;26.10;99.90
3492;DHT22;1760;52.480;13.422;2023-07-24T13:48:40;26.50;99.90
3492;DHT22;1760;52.480;13.422;2023-07-24T13:51:07;26.70;99.90
3492;DHT22;1760;52.480;13.422;2023-07-24T13:53:34;26.80;99.90
3492;DHT22;1760;52.480;13.422;2023-07-24T13:56:04;26.70;99.90
3492;DHT22;1760;52.480;13.422;2023-07-24T13:58:31;27.10;99.90
3492;DHT22;1760;52.480;13.422;2023-07-24T14:00:58;27.10;99.90
3492;DHT22;1760;52.480;13.422;2023-07-24T14:03:25;27.30;99.90
3492;DHT22;1760;52.480;13.422;2023-07-24T14:05:55;26.90;99.90
3492;DHT22;1760;52.480;13.422;2023-07-24T14:13:20;26.80;99.90
3492;DHT22;1760;52.480;13.422;2023-07-24T14:18:14;26.60;99.90
3492;DHT22;1760;52.480;13.422;2023-07-24T14:20:41;26.70;99.90
3492;DHT22;1760;52.480;13.422;2023-07-24T14:23:12;26.40;99.90
3492;DHT22;1760;52.480;13.422;2023-07-24T14:25:39;26.40;99.90
3492;DHT22;1760;52.480;13.422;2023-07-24T14:28:06;26.80;99.90
3492;DHT22;1760;52.480;13.422;2023-07-24T14:30:34;26.30;99.90
3492;DHT22;1760;52.480;13.422;2023-07-24T14:33:01;26.40;99.90
3492;DHT22;1760;52.480;13.422;2023-07-24T14:35:28;26.80;99.90
3492;DHT22;1760;52.480;13.422;2023-07-24T14:38:00;26.40;99.90
3492;DHT22;1760;52.480;13.422;2023-07-24T14:42:54;26.20;99.90
3492;DHT22;1760;52.480;13.422;2023-07-24T14:45:21;26.30;99.90
3492;DHT22;1760;52.480;13.422;2023-07-24T14:47:49;26.20;99.90
3492;DHT22;1760;52.480;13.422;2023-07-24T14:50:16;26.00;99.90
3492;DHT22;1760;52.480;13.422;2023-07-24T14:52:43;25.80;99.90
3492;DHT22;1760;52.480;13.422;2023-07-24T14:55:11;26.00;99.90
3492;DHT22;1760;52.480;13.422;2023-07-24T14:57:38;26.20;99.90
3492;DHT22;1760;52.480;13.422;2023-07-24T15:00:07;25.70;99.90
3492;DHT22;1760;52.480;13.422;2023-07-24T15:05:03;26.00;99.90
3492;DHT22;1760;52.480;13.422;2023-07-24T15:14:51;25.90;99.90
3492;DHT22;1760;52.480;13.422;2023-07-24T15:17:18;25.80;99.90
3492;DHT22;1760;52.480;13.422;2023-07-24T15:22:13;26.00;99.90
3492;DHT22;1760;52.480;13.422;2023-07-24T15:24:40;26.00;99.90
3492;DHT22;1760;52.480;13.422;2023-07-24T15:27:09;25.90;99.90
3492;DHT22;1760;52.480;13.422;2023-07-24T15:29:36;26.00;99.90
3492;DHT22;1760;52.480;13.422;2023-07-24T15:34:29;26.20;99.90
3492;DHT22;1760;52.480;13.422;2023-07-24T15:36:56;26.10;99.90
3492;DHT22;1760;52.480;13.422;2023-07-24T15:39:24;26.30;99.90
3492;DHT22;1760;52.480;13.422;2023-07-24T15:41:51;26.60;99.90
3492;DHT22;1760;52.480;13.422;2023-07-24T15:44:18;26.40;99.90
3492;DHT22;1760;52.480;13.422;2023-07-24T15:56:38;27.40;99.90
3492;DHT22;1760;52.480;13.422;2023-07-24T15:59:05;27.20;99.90
3492;DHT22;1760;52.480;13.422;2023-07-24T16:06:27;27.00;99.90
3492;DHT22;1760;52.480;13.422;2023-07-24T16:08:56;27.10;99.90
3492;DHT22;1760;52.480;13.422;2023-07-24T16:11:23;26.60;99.90
3492;DHT22;1760;52.480;13.422;2023-07-24T16:16:18;26.70;99.90
3492;DHT22;1760;52.480;13.422;2023-07-24T16:18:45;26.60;99.90
3492;DHT22;1760;52.480;13.422;2023-07-24T16:21:12;27.00;99.90
3492;DHT22;1760;52.480;13.422;2023-07-24T16:23:39;26.60;99.90
3492;DHT22;1760;52.480;13.422;2023-07-24T16:26:05;26.50;99.90
3492;DHT22;1760;52.480;13.422;2023-07-24T16:31:01;26.80;99.90
3492;DHT22;1760;52.480;13.422;2023-07-24T16:38:22;27.20;99.90
3492;DHT22;1760;52.480;13.422;2023-07-24T16:45:44;26.60;99.90
3492;DHT22;1760;52.480;13.422;2023-07-24T16:48:16;26.60;99.90
3492;DHT22;1760;52.480;13.422;2023-07-24T16:53:10;26.30;99.90
3492;DHT22;1760;52.480;13.422;2023-07-24T16:55:37;26.30;99.90
3492;DHT22;1760;52.480;13.422;2023-07-24T16:58:04;26.30;99.90
3492;DHT22;1760;52.480;13.422;2023-07-24T17:02:58;26.30;99.90
3492;DHT22;1760;52.480;13.422;2023-07-24T17:05:26;26.00;99.90
3492;DHT22;1760;52.480;13.422;2023-07-24T17:10:20;26.20;99.90
3492;DHT22;1760;52.480;13.422;2023-07-24T17:12:48;26.10;99.90
3492;DHT22;1760;52.480;13.422;2023-07-24T17:20:10;25.50;99.90
3492;DHT22;1760;52.480;13.422;2023-07-24T17:22:39;25.80;99.90
3492;DHT22;1760;52.480;13.422;2023-07-24T17:25:06;25.80;99.90
3492;DHT22;1760;52.480;13.422;2023-07-24T17:27:33;25.70;99.90
3492;DHT22;1760;52.480;13.422;2023-07-24T17:30:03;25.30;99.90
3492;DHT22;1760;52.480;13.422;2023-07-24T17:32:29;24.30;99.90
3492;DHT22;1760;52.480;13.422;2023-07-24T17:37:23;21.70;99.90
3492;DHT22;1760;52.480;13.422;2023-07-24T17:39:52;20.90;99.90
3492;DHT22;1760;52.480;13.422;2023-07-24T17:42:19;20.10;99.90
3492;DHT22;1760;52.480;13.422;2023-07-24T17:47:13;19.30;99.90
3492;DHT22;1760;52.480;13.422;2023-07-24T17:54:36;18.80;99.90
3492;DHT22;1760;52.480;13.422;2023-07-24T17:57:06;18.50;99.90
3492;DHT22;1760;52.480;13.422;2023-07-24T18:02:00;18.70;99.90
3492;DHT22;1760;52.480;13.422;2023-07-24T18:04:27;18.50;99.90
3492;DHT22;1760;52.480;13.422;2023-07-24T18:06:54;18.50;99.90
3492;DHT22;1760;52.480;13.422;2023-07-24T18:09:21;18.40;99.90
3492;DHT22;1760;52.480;13.422;2023-07-24T18:14:17;18.40;99.90
3492;DHT22;1760;52.480;13.422;2023-07-24T18:16:48;18.40;99.90
3492;DHT22;1760;52.480;13.422;2023-07-24T18:29:05;18.30;99.90
3492;DHT22;1760;52.480;13.422;2023-07-24T18:31:33;18.40;99.90
3492;DHT22;1760;52.480;13.422;2023-07-24T18:34:00;18.40;99.90
3492;DHT22;1760;52.480;13.422;2023-07-24T18:36:27;18.40;99.90
3492;DHT22;1760;52.480;13.422;2023-07-24T18:38:54;18.50;99.90
3492;DHT22;1760;52.480;13.422;2023-07-24T18:41:20;18.40;99.90
3492;DHT22;1760;52.480;13.422;2023-07-24T18:43:47;18.50;99.90
3492;DHT22;1760;52.480;13.422;2023-07-24T18:46:16;18.20;99.90
3492;DHT22;1760;52.480;13.422;2023-07-24T18:48:44;18.50;99.90
3492;DHT22;1760;52.480;13.422;2023-07-24T18:53:38;18.90;99.90
3492;DHT22;1760;52.480;13.422;2023-07-24T18:58:34;18.60;99.90
3492;DHT22;1760;52.480;13.422;2023-07-24T19:05:58;18.80;99.90
3492;DHT22;1760;52.480;13.422;2023-07-24T19:10:55;19.40;99.90
3492;DHT22;1760;52.480;13.422;2023-07-24T19:20:43;18.90;99.90
3492;DHT22;1760;52.480;13.422;2023-07-24T19:23:11;19.00;99.90
3492;DHT22;1760;52.480;13.422;2023-07-24T19:30:33;19.40;99.90
3492;DHT22;1760;52.480;13.422;2023-07-24T19:33:00;19.00;99.90
3492;DHT22;1760;52.480;13.422;2023-07-24T19:35:26;19.00;99.90
3492;DHT22;1760;52.480;13.422;2023-07-24T19:37:53;19.00;99.90
3492;DHT22;1760;52.480;13.422;2023-07-24T19:40:22;19.00;99.90
3492;DHT22;1760;52.480;13.422;2023-07-24T19:47:43;19.00;99.90